sensor_id;sensor_type;location;lat;lon;timestamp;P1;durP1;ratioP1;P2;durP2;ratioP2
58647;SDS011;45992;45.920;20.074;2022-12-10T00:01:35;22.95;;;11.10;;
58647;SDS011;45992;45.920;20.074;2022-12-10T00:04:02;19.55;;;10.77;;
58647;SDS011;45992;45.920;20.074;2022-12-10T00:08:54;20.02;;;11.07;;
58647;SDS011;45992;45.920;20.074;2022-12-10T00:11:21;20.75;;;10.25;;
58647;SDS011;45992;45.920;20.074;2022-12-10T00:13:48;14.57;;;8.93;;
58647;SDS011;45992;45.920;20.074;2022-12-10T00:16:14;17.23;;;10.68;;
58647;SDS011;45992;45.920;20.074;2022-12-10T00:18:41;15.45;;;8.73;;
58647;SDS011;45992;45.920;20.074;2022-12-10T00:21:08;15.75;;;8.25;;
58647;SDS011;45992;45.920;20.074;2022-12-10T00:23:34;21.17;;;8.27;;
58647;SDS011;45992;45.920;20.074;2022-12-10T00:26:02;16.55;;;8.05;;
58647;SDS011;45992;45.920;20.074;2022-12-10T00:28:28;14.75;;;8.98;;
58647;SDS011;45992;45.920;20.074;2022-12-10T00:30:54;16.10;;;8.77;;
58647;SDS011;45992;45.920;20.074;2022-12-10T00:33:20;21.07;;;9.13;;
58647;SDS011;45992;45.920;20.074;2022-12-10T00:35:46;13.35;;;7.95;;
58647;SDS011;45992;45.920;20.074;2022-12-10T00:38:12;15.85;;;8.88;;
58647;SDS011;45992;45.920;20.074;2022-12-10T00:40:38;15.80;;;8.63;;
58647;SDS011;45992;45.920;20.074;2022-12-10T00:43:04;12.03;;;6.67;;
58647;SDS011;45992;45.920;20.074;2022-12-10T00:45:30;19.35;;;9.18;;
58647;SDS011;45992;45.920;20.074;2022-12-10T00:47:56;23.67;;;9.17;;
58647;SDS011;45992;45.920;20.074;2022-12-10T00:50:22;17.25;;;8.70;;
58647;SDS011;45992;45.920;20.074;2022-12-10T00:52:48;15.13;;;8.73;;
58647;SDS011;45992;45.920;20.074;2022-12-10T00:55:14;16.77;;;9.40;;
58647;SDS011;45992;45.920;20.074;2022-12-10T00:57:40;16.67;;;8.57;;
58647;SDS011;45992;45.920;20.074;2022-12-10T01:00:06;17.27;;;9.10;;
58647;SDS011;45992;45.920;20.074;2022-12-10T01:02:32;22.17;;;10.02;;
58647;SDS011;45992;45.920;20.074;2022-12-10T01:04:58;13.77;;;8.47;;
58647;SDS011;45992;45.920;20.074;2022-12-10T01:07:24;18.02;;;10.05;;
58647;SDS011;45992;45.920;20.074;2022-12-10T01:09:50;19.67;;;9.60;;
58647;SDS011;45992;45.920;20.074;2022-12-10T01:12:16;18.42;;;9.95;;
58647;SDS011;45992;45.920;20.074;2022-12-10T01:14:42;19.35;;;9.23;;
58647;SDS011;45992;45.920;20.074;2022-12-10T01:17:08;22.27;;;8.73;;
58647;SDS011;45992;45.920;20.074;2022-12-10T01:19:35;14.70;;;9.32;;
58647;SDS011;45992;45.920;20.074;2022-12-10T01:22:01;17.80;;;8.52;;
58647;SDS011;45992;45.920;20.074;2022-12-10T01:24:28;13.55;;;8.15;;
58647;SDS011;45992;45.920;20.074;2022-12-10T01:26:54;17.25;;;8.68;;
58647;SDS011;45992;45.920;20.074;2022-12-10T01:29:20;20.95;;;9.70;;
58647;SDS011;45992;45.920;20.074;2022-12-10T01:31:49;15.53;;;8.70;;
58647;SDS011;45992;45.920;20.074;2022-12-10T01:34:15;14.98;;;9.02;;
58647;SDS011;45992;45.920;20.074;2022-12-10T01:36:42;18.77;;;9.17;;
58647;SDS011;45992;45.920;20.074;2022-12-10T01:39:09;15.80;;;8.15;;
58647;SDS011;45992;45.920;20.074;2022-12-10T01:44:53;16.02;;;9.07;;
58647;SDS011;45992;45.920;20.074;2022-12-10T01:46:51;14.88;;;8.98;;
58647;SDS011;45992;45.920;20.074;2022-12-10T01:51:45;15.07;;;8.10;;
58647;SDS011;45992;45.920;20.074;2022-12-10T01:54:13;16.50;;;9.25;;
58647;SDS011;45992;45.920;20.074;2022-12-10T01:56:40;14.60;;;7.90;;
58647;SDS011;45992;45.920;20.074;2022-12-10T01:59:07;15.20;;;8.07;;
58647;SDS011;45992;45.920;20.074;2022-12-10T02:01:40;14.85;;;9.68;;
58647;SDS011;45992;45.920;20.074;2022-12-10T02:14:45;15.48;;;8.75;;
58647;SDS011;45992;45.920;20.074;2022-12-10T02:17:22;18.70;;;8.90;;
58647;SDS011;45992;45.920;20.074;2022-12-10T02:20:01;16.10;;;10.00;;
58647;SDS011;45992;45.920;20.074;2022-12-10T02:22:30;15.45;;;8.73;;
58647;SDS011;45992;45.920;20.074;2022-12-10T02:24:57;19.40;;;11.10;;
58647;SDS011;45992;45.920;20.074;2022-12-10T02:29:56;17.08;;;9.68;;
58647;SDS011;45992;45.920;20.074;2022-12-10T02:34:53;14.88;;;8.27;;
58647;SDS011;45992;45.920;20.074;2022-12-10T02:37:24;17.55;;;9.30;;
58647;SDS011;45992;45.920;20.074;2022-12-10T02:39:53;14.88;;;7.97;;
58647;SDS011;45992;45.920;20.074;2022-12-10T02:42:20;15.00;;;8.73;;
58647;SDS011;45992;45.920;20.074;2022-12-10T02:44:47;17.05;;;9.40;;
58647;SDS011;45992;45.920;20.074;2022-12-10T02:47:15;16.48;;;8.77;;
58647;SDS011;45992;45.920;20.074;2022-12-10T02:49:42;15.27;;;8.18;;
58647;SDS011;45992;45.920;20.074;2022-12-10T02:52:12;14.55;;;8.90;;
58647;SDS011;45992;45.920;20.074;2022-12-10T02:54:42;15.60;;;9.07;;
58647;SDS011;45992;45.920;20.074;2022-12-10T02:57:18;16.10;;;9.02;;
58647;SDS011;45992;45.920;20.074;2022-12-10T03:07:12;21.30;;;9.73;;
58647;SDS011;45992;45.920;20.074;2022-12-10T03:09:44;16.20;;;8.77;;
58647;SDS011;45992;45.920;20.074;2022-12-10T03:12:19;15.57;;;9.65;;
58647;SDS011;45992;45.920;20.074;2022-12-10T03:14:48;19.27;;;9.60;;
58647;SDS011;45992;45.920;20.074;2022-12-10T03:17:14;19.63;;;11.10;;
58647;SDS011;45992;45.920;20.074;2022-12-10T03:19:42;18.05;;;10.80;;
58647;SDS011;45992;45.920;20.074;2022-12-10T03:22:09;17.63;;;10.00;;
58647;SDS011;45992;45.920;20.074;2022-12-10T03:24:37;18.15;;;9.73;;
58647;SDS011;45992;45.920;20.074;2022-12-10T03:27:04;20.38;;;10.27;;
58647;SDS011;45992;45.920;20.074;2022-12-10T03:29:33;20.30;;;10.65;;
58647;SDS011;45992;45.920;20.074;2022-12-10T03:32:00;19.42;;;9.75;;
58647;SDS011;45992;45.920;20.074;2022-12-10T03:34:27;16.35;;;9.77;;
58647;SDS011;45992;45.920;20.074;2022-12-10T03:36:53;18.88;;;10.20;;
58647;SDS011;45992;45.920;20.074;2022-12-10T03:39:20;18.45;;;10.00;;
58647;SDS011;45992;45.920;20.074;2022-12-10T03:41:46;16.85;;;9.52;;
58647;SDS011;45992;45.920;20.074;2022-12-10T03:44:12;16.30;;;9.27;;
58647;SDS011;45992;45.920;20.074;2022-12-10T03:46:38;17.63;;;9.33;;
58647;SDS011;45992;45.920;20.074;2022-12-10T03:49:04;17.95;;;9.63;;
58647;SDS011;45992;45.920;20.074;2022-12-10T03:51:30;16.92;;;9.63;;
58647;SDS011;45992;45.920;20.074;2022-12-10T03:53:56;16.00;;;10.27;;
58647;SDS011;45992;45.920;20.074;2022-12-10T03:56:22;21.43;;;10.90;;
58647;SDS011;45992;45.920;20.074;2022-12-10T03:58:48;15.97;;;9.00;;
58647;SDS011;45992;45.920;20.074;2022-12-10T04:01:14;17.10;;;10.80;;
58647;SDS011;45992;45.920;20.074;2022-12-10T04:03:41;20.35;;;12.35;;
58647;SDS011;45992;45.920;20.074;2022-12-10T04:06:08;24.65;;;13.63;;
58647;SDS011;45992;45.920;20.074;2022-12-10T04:08:34;20.00;;;12.93;;
58647;SDS011;45992;45.920;20.074;2022-12-10T04:11:01;25.17;;;12.65;;
58647;SDS011;45992;45.920;20.074;2022-12-10T04:13:28;18.38;;;11.95;;
58647;SDS011;45992;45.920;20.074;2022-12-10T04:16:12;19.08;;;12.55;;
58647;SDS011;45992;45.920;20.074;2022-12-10T04:18:54;18.20;;;12.05;;
58647;SDS011;45992;45.920;20.074;2022-12-10T04:21:20;18.98;;;12.02;;
58647;SDS011;45992;45.920;20.074;2022-12-10T04:24:06;23.25;;;12.02;;
58647;SDS011;45992;45.920;20.074;2022-12-10T04:26:51;21.33;;;12.05;;
58647;SDS011;45992;45.920;20.074;2022-12-10T04:29:18;20.40;;;11.43;;
58647;SDS011;45992;45.920;20.074;2022-12-10T04:31:44;20.75;;;11.13;;
58647;SDS011;45992;45.920;20.074;2022-12-10T04:34:10;16.40;;;10.20;;
58647;SDS011;45992;45.920;20.074;2022-12-10T04:36:36;16.17;;;10.73;;
58647;SDS011;45992;45.920;20.074;2022-12-10T04:39:02;15.95;;;10.60;;
58647;SDS011;45992;45.920;20.074;2022-12-10T04:41:28;19.35;;;11.35;;
58647;SDS011;45992;45.920;20.074;2022-12-10T04:43:54;19.63;;;11.35;;
58647;SDS011;45992;45.920;20.074;2022-12-10T04:46:21;19.57;;;11.27;;
58647;SDS011;45992;45.920;20.074;2022-12-10T04:48:47;19.05;;;12.18;;
58647;SDS011;45992;45.920;20.074;2022-12-10T04:51:13;23.47;;;14.30;;
58647;SDS011;45992;45.920;20.074;2022-12-10T04:53:39;22.37;;;13.30;;
58647;SDS011;45992;45.920;20.074;2022-12-10T04:56:05;20.85;;;13.60;;
58647;SDS011;45992;45.920;20.074;2022-12-10T04:58:32;18.42;;;12.55;;
58647;SDS011;45992;45.920;20.074;2022-12-10T05:03:24;23.98;;;13.68;;
58647;SDS011;45992;45.920;20.074;2022-12-10T05:05:50;19.63;;;12.20;;
58647;SDS011;45992;45.920;20.074;2022-12-10T05:08:16;15.10;;;10.13;;
58647;SDS011;45992;45.920;20.074;2022-12-10T05:10:42;22.25;;;11.02;;
58647;SDS011;45992;45.920;20.074;2022-12-10T05:13:08;22.57;;;14.03;;
58647;SDS011;45992;45.920;20.074;2022-12-10T05:15:37;40.83;;;27.05;;
58647;SDS011;45992;45.920;20.074;2022-12-10T05:18:03;23.27;;;15.38;;
58647;SDS011;45992;45.920;20.074;2022-12-10T05:20:29;22.77;;;15.48;;
58647;SDS011;45992;45.920;20.074;2022-12-10T05:22:55;19.30;;;12.57;;
58647;SDS011;45992;45.920;20.074;2022-12-10T05:25:40;18.50;;;11.82;;
58647;SDS011;45992;45.920;20.074;2022-12-10T05:28:18;24.30;;;14.77;;
58647;SDS011;45992;45.920;20.074;2022-12-10T05:30:44;21.40;;;12.98;;
58647;SDS011;45992;45.920;20.074;2022-12-10T05:33:10;26.20;;;15.73;;
58647;SDS011;45992;45.920;20.074;2022-12-10T05:35:36;29.47;;;20.73;;
58647;SDS011;45992;45.920;20.074;2022-12-10T05:38:02;33.33;;;23.03;;
58647;SDS011;45992;45.920;20.074;2022-12-10T05:40:28;34.67;;;24.20;;
58647;SDS011;45992;45.920;20.074;2022-12-10T05:42:54;35.13;;;23.57;;
58647;SDS011;45992;45.920;20.074;2022-12-10T05:45:20;37.90;;;29.08;;
58647;SDS011;45992;45.920;20.074;2022-12-10T05:47:46;33.97;;;24.70;;
58647;SDS011;45992;45.920;20.074;2022-12-10T05:50:12;35.23;;;27.33;;
58647;SDS011;45992;45.920;20.074;2022-12-10T05:52:38;36.72;;;26.92;;
58647;SDS011;45992;45.920;20.074;2022-12-10T05:55:05;36.37;;;26.30;;
58647;SDS011;45992;45.920;20.074;2022-12-10T05:57:31;43.85;;;26.63;;
58647;SDS011;45992;45.920;20.074;2022-12-10T05:59:57;38.83;;;24.47;;
58647;SDS011;45992;45.920;20.074;2022-12-10T06:02:23;72.13;;;47.03;;
58647;SDS011;45992;45.920;20.074;2022-12-10T06:04:49;97.20;;;71.73;;
58647;SDS011;45992;45.920;20.074;2022-12-10T06:07:15;66.43;;;52.25;;
58647;SDS011;45992;45.920;20.074;2022-12-10T06:09:41;37.10;;;27.83;;
58647;SDS011;45992;45.920;20.074;2022-12-10T06:12:07;32.65;;;22.05;;
58647;SDS011;45992;45.920;20.074;2022-12-10T06:14:33;40.60;;;28.45;;
58647;SDS011;45992;45.920;20.074;2022-12-10T06:16:59;29.87;;;21.53;;
58647;SDS011;45992;45.920;20.074;2022-12-10T06:19:25;62.88;;;38.30;;
58647;SDS011;45992;45.920;20.074;2022-12-10T06:21:51;52.47;;;32.10;;
58647;SDS011;45992;45.920;20.074;2022-12-10T06:24:17;56.30;;;39.40;;
58647;SDS011;45992;45.920;20.074;2022-12-10T06:26:43;48.03;;;35.50;;
58647;SDS011;45992;45.920;20.074;2022-12-10T06:29:10;44.75;;;31.27;;
58647;SDS011;45992;45.920;20.074;2022-12-10T06:31:36;77.63;;;46.30;;
58647;SDS011;45992;45.920;20.074;2022-12-10T06:34:02;79.27;;;48.57;;
58647;SDS011;45992;45.920;20.074;2022-12-10T06:36:28;53.60;;;34.63;;
58647;SDS011;45992;45.920;20.074;2022-12-10T06:38:54;52.90;;;35.90;;
58647;SDS011;45992;45.920;20.074;2022-12-10T06:41:20;30.63;;;20.50;;
58647;SDS011;45992;45.920;20.074;2022-12-10T06:43:46;25.60;;;18.50;;
58647;SDS011;45992;45.920;20.074;2022-12-10T06:46:13;27.52;;;19.67;;
58647;SDS011;45992;45.920;20.074;2022-12-10T06:48:40;45.22;;;31.27;;
58647;SDS011;45992;45.920;20.074;2022-12-10T06:51:06;65.53;;;46.28;;
58647;SDS011;45992;45.920;20.074;2022-12-10T06:53:33;78.95;;;58.83;;
58647;SDS011;45992;45.920;20.074;2022-12-10T06:58:28;62.08;;;41.83;;
58647;SDS011;45992;45.920;20.074;2022-12-10T07:01:01;43.92;;;31.15;;
58647;SDS011;45992;45.920;20.074;2022-12-10T07:03:27;37.25;;;23.25;;
58647;SDS011;45992;45.920;20.074;2022-12-10T07:05:56;36.17;;;23.80;;
58647;SDS011;45992;45.920;20.074;2022-12-10T07:08:22;33.58;;;21.13;;
58647;SDS011;45992;45.920;20.074;2022-12-10T07:10:48;29.25;;;20.38;;
58647;SDS011;45992;45.920;20.074;2022-12-10T07:13:14;49.30;;;33.53;;
58647;SDS011;45992;45.920;20.074;2022-12-10T07:15:40;49.40;;;32.70;;
58647;SDS011;45992;45.920;20.074;2022-12-10T07:18:06;45.83;;;31.58;;
58647;SDS011;45992;45.920;20.074;2022-12-10T07:20:33;56.58;;;36.03;;
58647;SDS011;45992;45.920;20.074;2022-12-10T07:22:59;61.33;;;39.88;;
58647;SDS011;45992;45.920;20.074;2022-12-10T07:25:25;59.60;;;41.13;;
58647;SDS011;45992;45.920;20.074;2022-12-10T07:27:52;51.60;;;36.53;;
58647;SDS011;45992;45.920;20.074;2022-12-10T07:30:18;43.57;;;28.80;;
58647;SDS011;45992;45.920;20.074;2022-12-10T07:32:44;37.95;;;26.38;;
58647;SDS011;45992;45.920;20.074;2022-12-10T07:35:10;39.87;;;26.53;;
58647;SDS011;45992;45.920;20.074;2022-12-10T07:37:36;43.83;;;34.27;;
58647;SDS011;45992;45.920;20.074;2022-12-10T07:40:02;42.67;;;28.50;;
58647;SDS011;45992;45.920;20.074;2022-12-10T07:42:28;47.80;;;32.05;;
58647;SDS011;45992;45.920;20.074;2022-12-10T07:44:54;39.70;;;26.97;;
58647;SDS011;45992;45.920;20.074;2022-12-10T07:47:20;47.87;;;34.70;;
58647;SDS011;45992;45.920;20.074;2022-12-10T07:49:46;50.57;;;37.87;;
58647;SDS011;45992;45.920;20.074;2022-12-10T07:52:12;53.03;;;39.40;;
58647;SDS011;45992;45.920;20.074;2022-12-10T07:54:38;49.17;;;37.13;;
58647;SDS011;45992;45.920;20.074;2022-12-10T07:57:04;59.17;;;41.33;;
58647;SDS011;45992;45.920;20.074;2022-12-10T07:59:30;64.28;;;44.92;;
58647;SDS011;45992;45.920;20.074;2022-12-10T08:01:56;61.92;;;42.38;;
58647;SDS011;45992;45.920;20.074;2022-12-10T08:04:22;64.53;;;41.40;;
58647;SDS011;45992;45.920;20.074;2022-12-10T08:06:48;75.57;;;53.63;;
58647;SDS011;45992;45.920;20.074;2022-12-10T08:09:14;57.90;;;38.20;;
58647;SDS011;45992;45.920;20.074;2022-12-10T08:11:40;57.17;;;40.03;;
58647;SDS011;45992;45.920;20.074;2022-12-10T08:14:06;47.33;;;31.47;;
58647;SDS011;45992;45.920;20.074;2022-12-10T08:16:33;57.05;;;36.33;;
58647;SDS011;45992;45.920;20.074;2022-12-10T08:18:59;54.25;;;36.42;;
58647;SDS011;45992;45.920;20.074;2022-12-10T08:23:51;46.92;;;30.83;;
58647;SDS011;45992;45.920;20.074;2022-12-10T08:26:19;37.88;;;27.98;;
58647;SDS011;45992;45.920;20.074;2022-12-10T08:28:46;44.85;;;30.40;;
58647;SDS011;45992;45.920;20.074;2022-12-10T08:33:38;94.80;;;53.35;;
58647;SDS011;45992;45.920;20.074;2022-12-10T08:36:05;127.50;;;81.15;;
58647;SDS011;45992;45.920;20.074;2022-12-10T08:38:32;44.05;;;29.75;;
58647;SDS011;45992;45.920;20.074;2022-12-10T08:40:58;47.63;;;33.97;;
58647;SDS011;45992;45.920;20.074;2022-12-10T08:43:25;38.53;;;26.13;;
58647;SDS011;45992;45.920;20.074;2022-12-10T08:45:51;30.80;;;22.10;;
58647;SDS011;45992;45.920;20.074;2022-12-10T08:48:17;84.33;;;59.47;;
58647;SDS011;45992;45.920;20.074;2022-12-10T08:50:43;123.20;;;88.87;;
58647;SDS011;45992;45.920;20.074;2022-12-10T08:53:10;53.05;;;40.85;;
58647;SDS011;45992;45.920;20.074;2022-12-10T08:55:39;49.20;;;34.70;;
58647;SDS011;45992;45.920;20.074;2022-12-10T08:58:05;49.60;;;35.75;;
58647;SDS011;45992;45.920;20.074;2022-12-10T09:00:31;43.13;;;38.22;;
58647;SDS011;45992;45.920;20.074;2022-12-10T09:02:57;69.55;;;52.90;;
58647;SDS011;45992;45.920;20.074;2022-12-10T09:05:24;90.72;;;68.57;;
58647;SDS011;45992;45.920;20.074;2022-12-10T09:07:50;49.72;;;38.50;;
58647;SDS011;45992;45.920;20.074;2022-12-10T09:10:16;63.88;;;40.80;;
58647;SDS011;45992;45.920;20.074;2022-12-10T09:12:42;53.08;;;37.15;;
58647;SDS011;45992;45.920;20.074;2022-12-10T09:15:08;39.05;;;28.13;;
58647;SDS011;45992;45.920;20.074;2022-12-10T09:17:35;130.18;;;83.10;;
58647;SDS011;45992;45.920;20.074;2022-12-10T09:20:02;62.78;;;39.10;;
58647;SDS011;45992;45.920;20.074;2022-12-10T09:22:29;43.88;;;30.80;;
58647;SDS011;45992;45.920;20.074;2022-12-10T09:24:55;41.97;;;31.13;;
58647;SDS011;45992;45.920;20.074;2022-12-10T09:27:21;120.18;;;82.70;;
58647;SDS011;45992;45.920;20.074;2022-12-10T09:29:47;84.50;;;64.68;;
58647;SDS011;45992;45.920;20.074;2022-12-10T09:32:13;120.25;;;86.32;;
58647;SDS011;45992;45.920;20.074;2022-12-10T09:34:39;63.63;;;45.92;;
58647;SDS011;45992;45.920;20.074;2022-12-10T09:40:10;39.00;;;30.77;;
58647;SDS011;45992;45.920;20.074;2022-12-10T09:53:34;58.83;;;38.28;;
58647;SDS011;45992;45.920;20.074;2022-12-10T09:56:01;49.75;;;30.85;;
58647;SDS011;45992;45.920;20.074;2022-12-10T09:58:28;46.80;;;32.72;;
58647;SDS011;45992;45.920;20.074;2022-12-10T10:00:58;36.00;;;25.02;;
58647;SDS011;45992;45.920;20.074;2022-12-10T10:03:24;45.22;;;33.88;;
58647;SDS011;45992;45.920;20.074;2022-12-10T10:05:51;69.47;;;54.53;;
58647;SDS011;45992;45.920;20.074;2022-12-10T10:08:23;44.53;;;28.75;;
58647;SDS011;45992;45.920;20.074;2022-12-10T10:10:50;88.00;;;48.13;;
58647;SDS011;45992;45.920;20.074;2022-12-10T10:13:30;50.22;;;29.83;;
58647;SDS011;45992;45.920;20.074;2022-12-10T10:15:58;39.53;;;25.42;;
58647;SDS011;45992;45.920;20.074;2022-12-10T10:18:33;34.17;;;21.77;;
58647;SDS011;45992;45.920;20.074;2022-12-10T10:21:01;52.60;;;30.25;;
58647;SDS011;45992;45.920;20.074;2022-12-10T10:23:28;109.00;;;63.28;;
58647;SDS011;45992;45.920;20.074;2022-12-10T10:25:54;133.98;;;84.53;;
58647;SDS011;45992;45.920;20.074;2022-12-10T10:28:21;40.60;;;24.37;;
58647;SDS011;45992;45.920;20.074;2022-12-10T10:30:47;45.53;;;32.70;;
58647;SDS011;45992;45.920;20.074;2022-12-10T10:33:14;44.92;;;32.63;;
58647;SDS011;45992;45.920;20.074;2022-12-10T10:35:42;40.15;;;30.50;;
58647;SDS011;45992;45.920;20.074;2022-12-10T10:38:16;29.58;;;19.42;;
58647;SDS011;45992;45.920;20.074;2022-12-10T10:40:44;28.73;;;18.88;;
58647;SDS011;45992;45.920;20.074;2022-12-10T10:45:54;22.95;;;14.90;;
58647;SDS011;45992;45.920;20.074;2022-12-10T10:48:23;30.10;;;26.58;;
58647;SDS011;45992;45.920;20.074;2022-12-10T10:50:51;46.03;;;26.30;;
58647;SDS011;45992;45.920;20.074;2022-12-10T10:53:28;35.13;;;19.40;;
58647;SDS011;45992;45.920;20.074;2022-12-10T10:55:55;70.05;;;42.10;;
58647;SDS011;45992;45.920;20.074;2022-12-10T10:58:22;53.72;;;36.65;;
58647;SDS011;45992;45.920;20.074;2022-12-10T11:00:55;31.38;;;21.38;;
58647;SDS011;45992;45.920;20.074;2022-12-10T11:03:22;41.03;;;29.95;;
58647;SDS011;45992;45.920;20.074;2022-12-10T11:05:48;31.85;;;19.77;;
58647;SDS011;45992;45.920;20.074;2022-12-10T11:08:17;38.75;;;26.40;;
58647;SDS011;45992;45.920;20.074;2022-12-10T11:10:47;121.57;;;76.70;;
58647;SDS011;45992;45.920;20.074;2022-12-10T11:13:19;121.35;;;78.05;;
58647;SDS011;45992;45.920;20.074;2022-12-10T11:15:45;53.78;;;37.78;;
58647;SDS011;45992;45.920;20.074;2022-12-10T11:23:26;48.53;;;35.30;;
58647;SDS011;45992;45.920;20.074;2022-12-10T11:26:05;62.38;;;44.03;;
58647;SDS011;45992;45.920;20.074;2022-12-10T11:31:44;55.25;;;40.97;;
58647;SDS011;45992;45.920;20.074;2022-12-10T11:41:48;72.70;;;50.60;;
58647;SDS011;45992;45.920;20.074;2022-12-10T11:47:08;114.55;;;85.68;;
58647;SDS011;45992;45.920;20.074;2022-12-10T11:54:57;118.78;;;80.45;;
58647;SDS011;45992;45.920;20.074;2022-12-10T12:05:26;131.07;;;98.93;;
58647;SDS011;45992;45.920;20.074;2022-12-10T12:10:35;50.10;;;33.03;;
58647;SDS011;45992;45.920;20.074;2022-12-10T12:13:12;47.40;;;31.75;;
58647;SDS011;45992;45.920;20.074;2022-12-10T12:21:13;56.85;;;46.05;;
58647;SDS011;45992;45.920;20.074;2022-12-10T12:23:58;42.85;;;31.30;;
58647;SDS011;45992;45.920;20.074;2022-12-10T12:26:27;42.80;;;28.15;;
58647;SDS011;45992;45.920;20.074;2022-12-10T12:31:34;32.60;;;23.23;;
58647;SDS011;45992;45.920;20.074;2022-12-10T12:36:50;30.67;;;21.83;;
58647;SDS011;45992;45.920;20.074;2022-12-10T12:41:55;46.63;;;30.75;;
58647;SDS011;45992;45.920;20.074;2022-12-10T12:46:54;58.35;;;41.60;;
58647;SDS011;45992;45.920;20.074;2022-12-10T12:49:27;49.92;;;35.85;;
58647;SDS011;45992;45.920;20.074;2022-12-10T12:54:38;37.22;;;25.80;;
58647;SDS011;45992;45.920;20.074;2022-12-10T13:00:00;47.67;;;33.78;;
58647;SDS011;45992;45.920;20.074;2022-12-10T13:05:34;53.10;;;39.28;;
58647;SDS011;45992;45.920;20.074;2022-12-10T13:08:34;53.80;;;39.55;;
58647;SDS011;45992;45.920;20.074;2022-12-10T13:13:23;48.25;;;33.85;;
58647;SDS011;45992;45.920;20.074;2022-12-10T13:15:50;43.05;;;33.17;;
58647;SDS011;45992;45.920;20.074;2022-12-10T13:23:31;56.58;;;36.25;;
58647;SDS011;45992;45.920;20.074;2022-12-10T13:25:59;49.47;;;34.90;;
58647;SDS011;45992;45.920;20.074;2022-12-10T13:41:31;44.92;;;32.35;;
58647;SDS011;45992;45.920;20.074;2022-12-10T13:46:55;45.70;;;32.22;;
58647;SDS011;45992;45.920;20.074;2022-12-10T13:49:25;40.20;;;26.50;;
58647;SDS011;45992;45.920;20.074;2022-12-10T13:51:54;43.92;;;29.88;;
58647;SDS011;45992;45.920;20.074;2022-12-10T13:54:56;44.08;;;30.92;;
58647;SDS011;45992;45.920;20.074;2022-12-10T13:59:45;39.78;;;27.13;;
58647;SDS011;45992;45.920;20.074;2022-12-10T14:07:24;47.33;;;31.23;;
58647;SDS011;45992;45.920;20.074;2022-12-10T14:09:54;60.70;;;38.20;;
58647;SDS011;45992;45.920;20.074;2022-12-10T14:12:31;54.85;;;31.98;;
58647;SDS011;45992;45.920;20.074;2022-12-10T14:15:00;47.38;;;28.52;;
58647;SDS011;45992;45.920;20.074;2022-12-10T14:17:31;54.55;;;34.20;;
58647;SDS011;45992;45.920;20.074;2022-12-10T14:19:57;61.83;;;36.05;;
58647;SDS011;45992;45.920;20.074;2022-12-10T14:22:31;47.30;;;29.67;;
58647;SDS011;45992;45.920;20.074;2022-12-10T14:25:00;44.63;;;27.95;;
58647;SDS011;45992;45.920;20.074;2022-12-10T14:27:26;51.17;;;30.67;;
58647;SDS011;45992;45.920;20.074;2022-12-10T14:30:38;48.42;;;29.90;;
58647;SDS011;45992;45.920;20.074;2022-12-10T14:32:39;52.63;;;32.35;;
58647;SDS011;45992;45.920;20.074;2022-12-10T14:35:12;61.60;;;38.33;;
58647;SDS011;45992;45.920;20.074;2022-12-10T14:37:39;56.60;;;31.67;;
58647;SDS011;45992;45.920;20.074;2022-12-10T14:40:06;57.13;;;35.25;;
58647;SDS011;45992;45.920;20.074;2022-12-10T14:42:33;66.70;;;38.35;;
58647;SDS011;45992;45.920;20.074;2022-12-10T14:45:00;71.53;;;43.63;;
58647;SDS011;45992;45.920;20.074;2022-12-10T14:47:32;59.53;;;37.90;;
58647;SDS011;45992;45.920;20.074;2022-12-10T14:49:58;47.60;;;31.90;;
58647;SDS011;45992;45.920;20.074;2022-12-10T14:52:31;43.95;;;30.13;;
58647;SDS011;45992;45.920;20.074;2022-12-10T14:55:00;41.38;;;27.13;;
58647;SDS011;45992;45.920;20.074;2022-12-10T14:57:38;41.40;;;26.35;;
58647;SDS011;45992;45.920;20.074;2022-12-10T15:00:07;41.20;;;27.70;;
58647;SDS011;45992;45.920;20.074;2022-12-10T15:02:34;68.05;;;45.92;;
58647;SDS011;45992;45.920;20.074;2022-12-10T15:05:03;75.30;;;42.25;;
58647;SDS011;45992;45.920;20.074;2022-12-10T15:07:31;76.15;;;44.22;;
58647;SDS011;45992;45.920;20.074;2022-12-10T15:09:59;63.53;;;38.80;;
58647;SDS011;45992;45.920;20.074;2022-12-10T15:12:43;46.75;;;32.05;;
58647;SDS011;45992;45.920;20.074;2022-12-10T15:18:01;86.22;;;49.58;;
58647;SDS011;45992;45.920;20.074;2022-12-10T15:20:36;94.85;;;59.33;;
58647;SDS011;45992;45.920;20.074;2022-12-10T15:23:45;92.78;;;59.20;;
58647;SDS011;45992;45.920;20.074;2022-12-10T15:28:37;53.63;;;36.37;;
58647;SDS011;45992;45.920;20.074;2022-12-10T15:31:11;52.85;;;32.15;;
58647;SDS011;45992;45.920;20.074;2022-12-10T15:33:39;57.03;;;37.00;;
58647;SDS011;45992;45.920;20.074;2022-12-10T15:38:48;39.40;;;26.95;;
58647;SDS011;45992;45.920;20.074;2022-12-10T15:46:48;46.53;;;31.45;;
58647;SDS011;45992;45.920;20.074;2022-12-10T15:49:14;38.15;;;26.15;;
58647;SDS011;45992;45.920;20.074;2022-12-10T15:51:40;40.27;;;27.83;;
58647;SDS011;45992;45.920;20.074;2022-12-10T15:54:23;43.13;;;31.63;;
58647;SDS011;45992;45.920;20.074;2022-12-10T15:56:52;45.95;;;30.85;;
58647;SDS011;45992;45.920;20.074;2022-12-10T15:59:18;54.78;;;36.70;;
58647;SDS011;45992;45.920;20.074;2022-12-10T16:01:45;35.00;;;24.30;;
58647;SDS011;45992;45.920;20.074;2022-12-10T16:04:12;45.95;;;31.25;;
58647;SDS011;45992;45.920;20.074;2022-12-10T16:06:44;58.45;;;40.17;;
58647;SDS011;45992;45.920;20.074;2022-12-10T16:09:10;41.75;;;30.33;;
58647;SDS011;45992;45.920;20.074;2022-12-10T16:11:37;31.58;;;22.10;;
58647;SDS011;45992;45.920;20.074;2022-12-10T16:14:05;38.42;;;27.55;;
58647;SDS011;45992;45.920;20.074;2022-12-10T16:16:31;34.00;;;24.58;;
58647;SDS011;45992;45.920;20.074;2022-12-10T16:18:58;47.13;;;26.55;;
58647;SDS011;45992;45.920;20.074;2022-12-10T16:21:24;27.17;;;17.33;;
58647;SDS011;45992;45.920;20.074;2022-12-10T16:23:50;62.35;;;31.63;;
58647;SDS011;45992;45.920;20.074;2022-12-10T16:26:18;42.60;;;25.70;;
58647;SDS011;45992;45.920;20.074;2022-12-10T16:28:45;26.10;;;17.95;;
58647;SDS011;45992;45.920;20.074;2022-12-10T16:31:12;28.05;;;19.67;;
58647;SDS011;45992;45.920;20.074;2022-12-10T16:33:39;42.63;;;31.10;;
58647;SDS011;45992;45.920;20.074;2022-12-10T16:36:05;29.00;;;20.97;;
58647;SDS011;45992;45.920;20.074;2022-12-10T16:38:31;31.85;;;21.42;;
58647;SDS011;45992;45.920;20.074;2022-12-10T16:40:57;29.07;;;18.50;;
58647;SDS011;45992;45.920;20.074;2022-12-10T16:43:25;26.67;;;18.85;;
58647;SDS011;45992;45.920;20.074;2022-12-10T16:45:52;26.83;;;19.42;;
58647;SDS011;45992;45.920;20.074;2022-12-10T16:48:19;24.50;;;18.33;;
58647;SDS011;45992;45.920;20.074;2022-12-10T16:50:45;19.73;;;15.63;;
58647;SDS011;45992;45.920;20.074;2022-12-10T16:53:29;19.45;;;15.20;;
58647;SDS011;45992;45.920;20.074;2022-12-10T16:55:59;31.23;;;21.25;;
58647;SDS011;45992;45.920;20.074;2022-12-10T16:58:25;24.23;;;17.73;;